Time;durP1;ratioP1;P1;durP2;ratioP2;P2;SDS_P1;SDS_P2;PMS_P1;PMS_P2;Temp;Humidity;BMP_temperature;BMP_pressure;BME280_temperature;BME280_humidity;BME280_pressure;Samples;Min_cycle;Max_cycle;Signal;HPM_P1;HPM_P2
2022/06/05 00:00:29;;;;;;;12.88;5.93;;;;;;;14.48;77.78;101831.06;5056497;28;20029;-45
2022/06/05 00:03:19;;;;;;;13.00;5.82;;;;;;;14.30;78.34;101829.72;5056488;28;20031;-45
2022/06/05 00:05:59;;;;;;;8.60;5.60;;;;;;;14.44;78.16;101815.84;5056513;28;20025;-44
2022/06/05 00:08:47;;;;;;;11.38;5.70;;;;;;;14.31;78.12;101820.91;5056816;28;20497;-44
2022/06/05 00:11:13;;;;;;;10.23;5.70;;;;;;;14.25;78.38;101815.66;5056779;28;20033;-44
2022/06/05 00:13:46;;;;;;;11.85;5.90;;;;;;;14.28;78.30;101813.50;5056351;28;20021;-44
2022/06/05 00:16:14;;;;;;;12.65;6.18;;;;;;;13.97;79.50;101800.78;5056480;28;20028;-44
2022/06/05 00:18:42;;;;;;;11.80;5.55;;;;;;;14.06;79.31;101815.28;5056285;28;20425;-44
2022/06/05 00:21:08;;;;;;;12.07;6.03;;;;;;;14.12;79.28;101805.94;5055873;28;20112;-44
2022/06/05 00:23:33;;;;;;;11.40;5.90;;;;;;;14.15;78.88;101795.16;5055526;28;20029;-45
2022/06/05 00:26:26;;;;;;;11.57;5.70;;;;;;;14.04;79.59;101791.28;5055714;28;20031;-45
2022/06/05 00:29:01;;;;;;;12.68;5.65;;;;;;;14.22;79.33;101796.03;5056199;28;20472;-45
2022/06/05 00:31:37;;;;;;;9.73;5.55;;;;;;;14.15;79.00;101797.75;5056124;28;20031;-45
2022/06/05 00:34:02;;;;;;;12.57;5.72;;;;;;;14.06;79.51;101804.88;5056510;28;20100;-45
2022/06/05 00:36:39;;;;;;;14.05;5.82;;;;;;;14.13;79.47;101802.34;5055908;28;20112;-44
2022/06/05 00:39:31;;;;;;;10.50;5.65;;;;;;;14.21;79.15;101800.44;5055754;28;20098;-45
2022/06/05 00:42:09;;;;;;;11.98;5.72;;;;;;;13.88;79.65;101789.72;5055584;28;20029;-44
2022/06/05 00:44:42;;;;;;;11.30;5.80;;;;;;;13.90;80.04;101789.53;5055868;28;20096;-44
2022/06/05 00:47:17;;;;;;;12.02;6.78;;;;;;;13.98;79.67;101789.41;5055403;28;20120;-46
2022/06/05 00:49:55;;;;;;;15.52;6.22;;;;;;;13.76;80.75;101776.41;5055829;28;20121;-45
2022/06/05 00:52:22;;;;;;;9.02;5.65;;;;;;;13.85;80.14;101786.69;5055753;28;20388;-44
2022/06/05 00:54:48;;;;;;;10.57;5.88;;;;;;;13.89;80.16;101772.31;5055986;28;20028;-45
2022/06/05 00:57:14;;;;;;;9.98;6.18;;;;;;;13.82;80.31;101774.84;5055273;28;20061;-45
2022/06/05 00:59:42;;;;;;;12.73;6.25;;;;;;;13.67;81.03;101774.91;5055569;28;20086;-45
2022/06/05 01:02:08;;;;;;;10.05;5.85;;;;;;;13.74;81.07;101770.56;5055766;28;20052;-45
2022/06/05 01:04:37;;;;;;;11.48;6.32;;;;;;;13.48;82.47;101775.47;5055525;28;20032;-45
2022/06/05 01:07:02;;;;;;;9.50;6.00;;;;;;;13.60;81.97;101765.41;5055129;28;20025;-45
2022/06/05 01:09:28;;;;;;;14.95;6.32;;;;;;;13.38;82.68;101760.19;5055372;28;20028;-52
2022/06/05 01:12:20;;;;;;;16.23;6.28;;;;;;;13.64;81.81;101758.88;5055321;28;20112;-44
2022/06/05 01:14:57;;;;;;;15.13;6.85;;;;;;;13.61;82.04;101748.84;5055630;28;20467;-44
2022/06/05 01:17:39;;;;;;;14.65;6.57;;;;;;;13.50;82.46;101755.31;5055793;28;20024;-44
2022/06/05 01:20:34;;;;;;;13.60;6.45;;;;;;;13.61;82.12;101754.84;5055114;28;20532;-44
2022/06/05 01:23:27;;;;;;;16.05;6.72;;;;;;;13.55;82.34;101752.97;5050779;28;20041;-44
2022/06/05 01:26:03;;;;;;;14.65;7.03;;;;;;;13.57;82.57;101743.22;5055369;28;20037;-45
2022/06/05 01:28:32;;;;;;;14.70;6.18;;;;;;;13.50;83.24;101743.13;5054588;28;20028;-44
2022/06/05 01:31:23;;;;;;;11.05;6.28;;;;;;;13.44;83.13;101738.69;5055278;28;20051;-43
2022/06/05 01:34:10;;;;;;;16.75;7.00;;;;;;;13.61;82.84;101733.25;5054955;28;20021;-45
2022/06/05 01:36:40;;;;;;;11.73;6.68;;;;;;;13.68;82.39;101734.94;5054981;28;20415;-44
2022/06/05 01:39:23;;;;;;;10.80;6.43;;;;;;;13.75;82.15;101737.59;5054846;28;20461;-45
2022/06/05 01:41:54;;;;;;;12.20;6.20;;;;;;;13.83;82.26;101742.69;5054557;28;20025;-45
2022/06/05 01:44:29;;;;;;;13.48;6.28;;;;;;;13.81;82.11;101736.88;5054751;28;20025;-45
2022/06/05 01:46:59;;;;;;;12.93;6.43;;;;;;;13.64;82.47;101736.31;5054696;28;20027;-45
2022/06/05 01:49:37;;;;;;;14.65;6.93;;;;;;;13.52;83.53;101743.78;5054331;28;20033;-45
2022/06/05 01:52:12;;;;;;;12.82;7.28;;;;;;;13.47;84.18;101743.50;5054548;28;20478;-44
2022/06/05 01:54:54;;;;;;;13.80;7.03;;;;;;;13.64;83.26;101740.69;5054275;28;20024;-45
2022/06/05 01:57:22;;;;;;;8.68;6.22;;;;;;;13.58;83.24;101736.22;5054573;28;20474;-44
2022/06/05 01:59:56;;;;;;;11.77;7.07;;;;;;;13.49;83.70;101740.72;5054430;28;20463;-42
2022/06/05 02:02:28;;;;;;;12.95;7.20;;;;;;;13.48;84.19;101732.13;5054478;28;20025;-44
2022/06/05 02:05:10;;;;;;;14.10;7.20;;;;;;;13.47;84.08;101730.53;5054047;28;20020;-43
2022/06/05 02:07:42;;;;;;;11.45;6.72;;;;;;;13.65;83.76;101729.31;5054203;28;20039;-44
2022/06/05 02:10:29;;;;;;;14.45;7.28;;;;;;;13.65;84.08;101716.31;5054335;28;20040;-44
2022/06/05 02:12:58;;;;;;;11.43;7.03;;;;;;;13.49;84.26;101715.56;5054130;28;20033;-44
2022/06/05 02:15:25;;;;;;;15.43;7.18;;;;;;;13.47;85.24;101719.34;5053793;28;20025;-43
2022/06/05 02:17:50;;;;;;;14.60;7.20;;;;;;;13.36;84.84;101705.03;5053299;28;20078;-48
2022/06/05 02:20:16;;;;;;;12.00;7.10;;;;;;;13.59;84.62;101699.69;5051973;28;20021;-42
2022/06/05 02:22:46;;;;;;;16.35;7.30;;;;;;;13.47;84.70;101695.97;5051951;28;20439;-44
2022/06/05 02:25:13;;;;;;;14.63;7.18;;;;;;;13.54;84.70;101696.84;5050571;28;20435;-42
2022/06/05 02:27:39;;;;;;;15.43;7.63;;;;;;;13.57;84.37;101719.03;5052136;28;20476;-43
2022/06/05 02:30:07;;;;;;;12.60;7.15;;;;;;;13.69;83.92;101710.56;5052242;28;20052;-44
2022/06/05 02:32:57;;;;;;;12.30;7.30;;;;;;;13.68;83.72;101702.97;5050790;28;20127;-44
2022/06/05 02:35:47;;;;;;;12.55;7.30;;;;;;;13.79;83.18;101694.69;5053597;28;20029;-44
2022/06/05 02:38:30;;;;;;;14.57;7.20;;;;;;;13.63;84.19;101698.31;5053782;28;20104;-44
2022/06/05 02:41:07;;;;;;;13.00;7.47;;;;;;;13.68;83.75;101689.97;5053021;28;20036;-44
2022/06/05 02:44:29;;;;;;;17.73;7.32;;;;;;;13.62;84.04;101690.72;5053498;28;20120;-44
2022/06/05 02:46:48;;;;;;;15.88;7.95;;;;;;;13.78;83.55;101685.28;5053295;28;20032;-45
2022/06/05 02:49:30;;;;;;;12.30;7.00;;;;;;;13.85;82.85;101680.16;5053883;28;20107;-43
2022/06/05 02:52:01;;;;;;;13.57;7.38;;;;;;;13.63;84.15;101669.75;5053379;28;20048;-44
2022/06/05 02:54:27;;;;;;;13.10;7.30;;;;;;;13.70;83.87;101677.63;5053383;28;20067;-44
2022/06/05 02:56:56;;;;;;;11.50;7.38;;;;;;;13.72;83.44;101675.63;5053276;28;20017;-49
2022/06/05 02:59:23;;;;;;;14.90;7.97;;;;;;;13.89;82.65;101668.38;5053529;28;20460;-46
2022/06/05 03:04:32;;;;;;;12.85;7.43;;;;;;;13.56;83.86;101629.16;5053910;28;20559;-45
2022/06/05 03:06:58;;;;;;;16.77;7.88;;;;;;;13.59;83.23;101639.97;5053522;28;20100;-44
2022/06/05 03:09:23;;;;;;;17.30;7.68;;;;;;;13.76;83.09;101648.31;5053215;28;20063;-45
2022/06/05 03:11:48;;;;;;;15.18;7.82;;;;;;;13.80;82.70;101649.53;5053151;28;20105;-45
2022/06/05 03:14:14;;;;;;;14.20;7.95;;;;;;;13.68;83.05;101633.66;5053472;28;20128;-45
2022/06/05 03:16:39;;;;;;;15.20;8.00;;;;;;;13.29;85.21;101629.69;5053521;28;20401;-45
2022/06/05 03:19:04;;;;;;;14.82;7.50;;;;;;;13.40;83.87;101620.59;5053155;28;20024;-45
2022/06/05 03:21:34;;;;;;;13.05;7.70;;;;;;;13.38;84.84;101622.59;5053365;28;20078;-45
2022/06/05 03:24:00;;;;;;;13.68;7.93;;;;;;;13.66;84.06;101634.81;5053215;28;20056;-45
2022/06/05 03:26:26;;;;;;;14.35;7.60;;;;;;;13.74;83.01;101627.69;5053041;28;20028;-45
2022/06/05 03:28:51;;;;;;;12.02;7.68;;;;;;;13.49;83.30;101622.09;5053376;28;20025;-45
2022/06/05 03:31:16;;;;;;;14.23;7.82;;;;;;;13.35;84.39;101607.38;5053706;28;20027;-46
2022/06/05 03:33:42;;;;;;;16.58;8.10;;;;;;;13.15;85.82;101601.13;5053560;28;20025;-42
2022/06/05 03:36:14;;;;;;;13.38;8.50;;;;;;;13.10;86.32;101592.13;5052980;28;20021;-44
2022/06/05 03:38:40;;;;;;;15.70;8.95;;;;;;;13.21;86.07;101579.66;5053549;28;20029;-44
2022/06/05 03:41:08;;;;;;;15.10;8.15;;;;;;;13.31;85.35;101580.16;5053226;28;20048;-43
2022/06/05 03:43:34;;;;;;;17.48;8.48;;;;;;;13.49;84.91;101582.31;5053322;28;20033;-45
2022/06/05 03:46:05;;;;;;;18.27;8.88;;;;;;;13.53;84.81;101591.38;5052809;28;20029;-45
2022/06/05 03:48:31;;;;;;;15.75;8.77;;;;;;;13.67;84.04;101597.47;5053442;28;20028;-45
2022/06/05 03:50:57;;;;;;;19.52;8.30;;;;;;;13.63;83.61;101604.03;5053135;28;20032;-43
2022/06/05 03:53:23;;;;;;;15.98;8.40;;;;;;;13.61;84.24;101599.03;5056369;28;20499;-45
2022/06/05 03:55:48;;;;;;;15.75;8.65;;;;;;;13.51;84.80;101596.72;5056856;28;20029;-44
2022/06/05 03:58:13;;;;;;;18.00;9.60;;;;;;;13.35;84.81;101590.97;5056538;28;20481;-44
2022/06/05 04:00:41;;;;;;;18.15;8.52;;;;;;;13.29;84.93;101595.94;5055199;28;20024;-45
2022/06/05 04:03:07;;;;;;;16.13;8.93;;;;;;;13.49;84.53;101593.53;5056732;28;20087;-44
2022/06/05 04:05:32;;;;;;;14.60;8.27;;;;;;;13.46;84.26;101593.88;5056631;28;20487;-44
2022/06/05 04:07:58;;;;;;;19.70;9.05;;;;;;;13.41;84.21;101587.66;5056567;28;20025;-44
2022/06/05 04:10:23;;;;;;;14.25;8.52;;;;;;;13.35;84.86;101591.81;5056875;28;20364;-44
2022/06/05 04:12:49;;;;;;;16.13;8.52;;;;;;;13.38;85.43;101582.81;5056386;28;20364;-44
2022/06/05 04:15:15;;;;;;;15.80;9.25;;;;;;;13.39;85.10;101582.66;5056155;28;20024;-44
2022/06/05 04:17:41;;;;;;;16.17;8.68;;;;;;;13.31;85.05;101580.16;5056713;28;20024;-45
2022/06/05 04:20:08;;;;;;;18.58;9.07;;;;;;;13.20;85.56;101581.41;5056089;28;20029;-45
2022/06/05 04:22:39;;;;;;;22.20;9.23;;;;;;;13.31;85.30;101580.16;5055998;28;20033;-45
2022/06/05 04:25:07;;;;;;;14.13;8.98;;;;;;;13.35;85.05;101583.19;5055888;28;20052;-45
2022/06/05 04:27:33;;;;;;;14.90;8.98;;;;;;;13.43;84.92;101583.88;5056384;28;20124;-45
2022/06/05 04:29:59;;;;;;;19.85;9.10;;;;;;;13.58;84.53;101589.03;5056004;28;20112;-44
2022/06/05 04:32:25;;;;;;;16.90;9.10;;;;;;;13.68;83.91;101586.09;5055913;28;20027;-45
2022/06/05 04:34:51;;;;;;;16.20;8.77;;;;;;;13.68;83.95;101588.69;5056106;28;20028;-44
2022/06/05 04:37:17;;;;;;;17.08;9.15;;;;;;;13.67;84.01;101590.50;5055830;28;20045;-43
2022/06/05 04:39:42;;;;;;;15.60;8.85;;;;;;;13.54;83.92;101593.75;5055741;28;20060;-44
2022/06/05 04:42:07;;;;;;;16.70;9.63;;;;;;;13.79;83.72;101589.97;5054453;28;20025;-44
2022/06/05 04:44:33;;;;;;;14.50;9.15;;;;;;;13.66;83.58;101583.66;5055667;28;20040;-44
2022/06/05 04:46:58;;;;;;;20.42;9.43;;;;;;;13.92;83.19;101577.06;5055509;28;20021;-44
2022/06/05 04:49:24;;;;;;;15.15;9.00;;;;;;;13.74;83.50;101583.53;5055588;28;20025;-45
2022/06/05 04:51:49;;;;;;;14.50;9.20;;;;;;;13.69;83.51;101582.50;5055854;28;20120;-45
2022/06/05 04:54:16;;;;;;;15.43;8.82;;;;;;;13.69;84.06;101577.28;5055793;28;20031;-53
2022/06/05 04:56:41;;;;;;;16.52;9.13;;;;;;;13.59;83.61;101569.84;5055956;28;20024;-44
2022/06/05 04:59:07;;;;;;;14.05;9.07;;;;;;;13.73;83.35;101561.16;5055570;28;20060;-44
2022/06/05 05:01:35;;;;;;;15.48;9.73;;;;;;;13.63;83.77;101568.47;5055554;28;20464;-44
2022/06/05 05:04:04;;;;;;;15.25;9.10;;;;;;;13.89;83.38;101560.06;5054595;28;20032;-44
2022/06/05 05:06:31;;;;;;;17.17;9.38;;;;;;;13.86;82.83;101555.25;5055759;28;20031;-45
2022/06/05 05:08:57;;;;;;;16.92;9.02;;;;;;;13.78;83.57;101557.97;5055171;28;20052;-44
2022/06/05 05:11:22;;;;;;;16.20;9.15;;;;;;;13.87;83.35;101559.47;5055653;28;20017;-44
2022/06/05 05:13:48;;;;;;;14.45;9.32;;;;;;;13.96;82.75;101554.94;5055084;28;20459;-45
2022/06/05 05:16:14;;;;;;;21.88;9.15;;;;;;;14.07;82.45;101556.16;5055107;28;20075;-44
2022/06/05 05:18:39;;;;;;;16.35;9.55;;;;;;;14.02;82.61;101553.38;5055551;28;20029;-44
2022/06/05 05:21:11;;;;;;;16.25;9.20;;;;;;;13.98;83.01;101551.16;5054960;28;20021;-45
2022/06/05 05:23:37;;;;;;;16.25;9.45;;;;;;;14.13;83.38;101545.03;5053824;28;20151;-42
2022/06/05 05:26:11;;;;;;;14.48;9.02;;;;;;;14.08;82.42;101545.59;5054076;28;20096;-43
2022/06/05 05:28:38;;;;;;;14.20;9.10;;;;;;;14.04;82.52;101538.38;5053617;28;20443;-44
2022/06/05 05:31:08;;;;;;;17.23;9.60;;;;;;;14.12;83.01;101546.00;5055218;28;20028;-44
2022/06/05 05:33:34;;;;;;;15.63;9.40;;;;;;;14.08;82.47;101539.59;5054932;28;20523;-44
2022/06/05 05:35:59;;;;;;;15.52;9.38;;;;;;;14.21;82.33;101540.50;5055034;28;20105;-44
2022/06/05 05:38:24;;;;;;;14.93;9.48;;;;;;;14.26;82.00;101546.91;5054632;28;20028;-45
2022/06/05 05:43:33;;;;;;;15.18;9.48;;;;;;;14.02;82.72;101561.97;5055005;28;20063;-44
2022/06/05 05:45:58;;;;;;;21.60;10.30;;;;;;;14.00;82.59;101554.34;5054734;28;20037;-44
2022/06/05 05:48:24;;;;;;;16.27;9.73;;;;;;;14.11;82.67;101549.63;5054751;28;20081;-44
2022/06/05 05:50:49;;;;;;;16.65;9.80;;;;;;;14.18;82.57;101553.03;5053877;28;20361;-44
2022/06/05 05:53:14;;;;;;;15.40;9.68;;;;;;;13.96;82.71;101558.31;5054371;28;20116;-45
2022/06/05 05:55:39;;;;;;;17.05;9.63;;;;;;;13.87;83.33;101554.28;5054229;28;20464;-45
2022/06/05 05:58:05;;;;;;;17.70;9.45;;;;;;;14.02;82.93;101551.56;5054387;28;20044;-44
2022/06/05 06:00:30;;;;;;;15.35;9.65;;;;;;;14.16;82.81;101549.84;5054242;28;20021;-44
2022/06/05 06:02:57;;;;;;;20.02;9.55;;;;;;;14.25;81.87;101561.69;5054164;28;20510;-45
2022/06/05 06:05:23;;;;;;;15.32;9.38;;;;;;;14.13;82.60;101558.03;5054019;28;20056;-45
2022/06/05 06:07:48;;;;;;;17.48;9.68;;;;;;;14.15;82.35;101556.81;5054151;28;20119;-44
2022/06/05 06:10:13;;;;;;;16.45;9.77;;;;;;;14.14;82.57;101557.03;5053917;28;20074;-44
2022/06/05 06:12:39;;;;;;;13.63;9.10;;;;;;;14.28;82.38;101556.09;5054078;28;20050;-45
2022/06/05 06:15:05;;;;;;;13.77;9.40;;;;;;;14.38;82.43;101555.75;5053750;28;20021;-44
2022/06/05 06:17:31;;;;;;;15.00;8.85;;;;;;;14.47;81.43;101556.38;5053628;28;20111;-44
2022/06/05 06:19:57;;;;;;;16.80;9.07;;;;;;;14.37;81.23;101547.16;5053826;28;20052;-44
2022/06/05 06:22:22;;;;;;;17.13;9.35;;;;;;;14.50;82.02;101546.41;5054050;28;20025;-45
2022/06/05 06:24:48;;;;;;;18.67;9.25;;;;;;;14.48;81.88;101547.59;5053607;28;20049;-44
2022/06/05 06:27:13;;;;;;;16.52;9.25;;;;;;;14.56;81.42;101552.69;5053445;28;20065;-44
2022/06/05 06:29:39;;;;;;;14.75;9.50;;;;;;;14.54;81.15;101554.66;5053857;28;20052;-45
2022/06/05 06:32:04;;;;;;;16.92;9.48;;;;;;;14.74;81.10;101550.31;5053910;28;20017;-44
2022/06/05 06:34:30;;;;;;;18.85;9.57;;;;;;;14.81;80.07;101556.34;5053592;28;20079;-44
2022/06/05 06:36:55;;;;;;;16.05;9.13;;;;;;;14.83;80.30;101548.34;5053574;28;20025;-45
2022/06/05 06:39:21;;;;;;;14.55;8.82;;;;;;;14.76;79.82;101542.31;5053773;28;20170;-45
2022/06/05 06:41:48;;;;;;;14.63;9.52;;;;;;;14.88;80.00;101548.56;5053816;28;20063;-45
2022/06/05 06:44:14;;;;;;;15.48;9.07;;;;;;;14.85;79.97;101548.97;5053884;28;20039;-44
2022/06/05 06:46:39;;;;;;;19.00;9.10;;;;;;;14.63;80.46;101545.69;5053465;28;20100;-43
2022/06/05 06:49:05;;;;;;;14.68;8.93;;;;;;;14.92;79.95;101548.97;5053383;28;20021;-44
2022/06/05 06:51:30;;;;;;;17.23;9.27;;;;;;;14.80;79.74;101544.34;5053628;28;20100;-44
2022/06/05 06:53:56;;;;;;;14.13;9.18;;;;;;;14.88;80.10;101541.56;5053359;28;20418;-44
2022/06/05 06:56:24;;;;;;;18.83;9.13;;;;;;;15.24;79.08;101534.41;5053418;28;20383;-45
2022/06/05 06:58:49;;;;;;;15.32;9.30;;;;;;;14.96;78.89;101535.38;5053363;28;20028;-44
2022/06/05 07:01:15;;;;;;;16.50;8.73;;;;;;;15.23;78.57;101535.41;5053284;28;20029;-44
2022/06/05 07:03:41;;;;;;;14.07;9.23;;;;;;;15.10;78.78;101528.38;5053285;28;20496;-44
2022/06/05 07:06:09;;;;;;;17.05;9.13;;;;;;;15.26;78.19;101528.00;5053515;28;20059;-44
2022/06/05 07:08:35;;;;;;;15.85;8.90;;;;;;;15.18;78.28;101517.78;5053535;28;20061;-44
2022/06/05 07:11:04;;;;;;;15.15;8.95;;;;;;;15.43;77.46;101512.78;5052032;28;20035;-43
2022/06/05 07:13:29;;;;;;;17.60;8.68;;;;;;;15.26;77.99;101501.97;5054017;28;20017;-44
2022/06/05 07:15:54;;;;;;;15.32;8.82;;;;;;;15.57;77.03;101493.53;5053199;28;20492;-44
2022/06/05 07:18:20;;;;;;;15.88;9.27;;;;;;;15.71;76.46;101498.78;5053433;28;20028;-44
2022/06/05 07:20:46;;;;;;;12.80;8.50;;;;;;;15.78;76.05;101476.09;5053653;28;20321;-44
2022/06/05 07:23:13;;;;;;;15.52;8.65;;;;;;;15.88;76.56;101481.69;5051832;28;20028;-43
2022/06/05 07:25:45;;;;;;;14.25;9.18;;;;;;;15.72;76.54;101461.28;5052999;28;20450;-43
2022/06/05 07:28:10;;;;;;;15.18;9.05;;;;;;;15.73;76.07;101461.06;5056182;28;20463;-43
2022/06/05 07:30:36;;;;;;;16.90;9.07;;;;;;;15.91;76.27;101457.00;5057010;28;20028;-43
2022/06/05 07:33:01;;;;;;;13.50;8.70;;;;;;;16.23;74.98;101453.47;5057046;28;20028;-44
2022/06/05 07:35:26;;;;;;;16.65;8.80;;;;;;;16.26;74.70;101448.88;5057040;28;20031;-43
2022/06/05 07:37:52;;;;;;;13.57;8.63;;;;;;;16.30;74.56;101444.81;5056839;28;20039;-44
2022/06/05 07:40:20;;;;;;;15.68;8.73;;;;;;;16.39;74.38;101443.56;5057127;28;20024;-44
2022/06/05 07:42:46;;;;;;;15.27;8.18;;;;;;;16.53;74.02;101450.31;5056227;28;20021;-44
2022/06/05 07:45:14;;;;;;;15.35;9.38;;;;;;;16.68;73.38;101439.56;5057486;28;20474;-45
2022/06/05 07:47:44;;;;;;;12.07;8.38;;;;;;;16.73;73.06;101437.13;5056892;28;20032;-45
2022/06/05 07:50:21;;;;;;;12.68;8.13;;;;;;;16.79;72.65;101431.09;5056895;28;20032;-44
2022/06/05 07:55:33;;;;;;;10.77;8.27;;;;;;;17.17;71.69;101424.16;5055890;28;20118;-42
2022/06/05 07:57:58;;;;;;;13.57;8.75;;;;;;;17.31;70.85;101423.81;5054749;28;20057;-43
2022/06/05 08:00:24;;;;;;;12.90;7.95;;;;;;;17.50;69.78;101411.59;5055764;28;20029;-42
2022/06/05 08:02:49;;;;;;;15.90;8.27;;;;;;;17.56;70.19;101408.09;5056579;28;20032;-44
2022/06/05 08:05:14;;;;;;;12.45;8.10;;;;;;;18.00;68.42;101410.63;5056957;28;20025;-44
2022/06/05 08:07:40;;;;;;;14.13;8.43;;;;;;;18.00;67.75;101408.00;5056881;28;20029;-44
2022/06/05 08:10:06;;;;;;;14.52;7.85;;;;;;;18.22;67.53;101401.28;5056826;28;20371;-44
2022/06/05 08:12:33;;;;;;;12.07;8.48;;;;;;;17.73;68.39;101397.06;5054842;28;20033;-44
2022/06/05 08:15:09;;;;;;;12.60;8.40;;;;;;;17.74;68.26;101382.97;5056715;28;20036;-44
2022/06/05 08:17:36;;;;;;;17.13;7.85;;;;;;;18.21;67.12;101372.72;5054979;28;20069;-43
2022/06/05 08:20:02;;;;;;;12.30;7.93;;;;;;;18.61;66.30;101370.31;5056015;28;20020;-44
2022/06/05 08:22:28;;;;;;;13.68;8.18;;;;;;;18.43;66.50;101363.34;5056315;28;20025;-44
2022/06/05 08:27:45;;;;;;;12.88;8.10;;;;;;;18.79;64.39;101351.13;5053925;28;20484;-44
2022/06/05 08:30:11;;;;;;;11.38;7.82;;;;;;;19.60;62.52;101351.25;5055517;28;20502;-44
2022/06/05 08:32:37;;;;;;;11.52;7.65;;;;;;;19.24;64.11;101339.25;5056052;28;20029;-44
2022/06/05 08:35:03;;;;;;;11.50;7.28;;;;;;;20.35;61.50;101333.69;5056204;28;20479;-44
2022/06/05 08:43:09;;;;;;;16.60;7.07;;;;;;;20.66;59.45;101316.59;5056423;28;20040;-44
2022/06/05 08:45:50;;;;;;;9.38;6.63;;;;;;;21.60;56.58;101313.03;5055806;28;20468;-44
2022/06/05 08:48:26;;;;;;;12.98;7.60;;;;;;;21.63;56.60;101310.69;5055625;28;20021;-44
2022/06/05 08:50:58;;;;;;;11.98;7.55;;;;;;;21.22;57.17;101313.91;5055889;28;20017;-44
2022/06/05 08:53:53;;;;;;;10.80;7.38;;;;;;;21.94;56.35;101315.47;5055961;28;20040;-44
2022/06/05 08:56:30;;;;;;;13.02;7.18;;;;;;;21.46;56.87;101304.75;5054563;28;20472;-44
2022/06/05 08:59:01;;;;;;;10.95;7.25;;;;;;;20.53;58.59;101304.59;5055307;28;20036;-44
2022/06/05 09:01:58;;;;;;;8.65;6.72;;;;;;;21.70;56.13;101307.91;5055438;28;20048;-45
2022/06/05 09:04:45;;;;;;;10.30;6.95;;;;;;;22.28;56.14;101314.22;5047002;28;20479;-43
2022/06/05 09:07:19;;;;;;;11.52;7.20;;;;;;;22.53;55.08;101308.34;5055364;28;20108;-43
2022/06/05 09:10:13;;;;;;;10.88;6.63;;;;;;;22.81;54.09;101308.22;5037647;28;20541;-43
2022/06/05 09:13:19;;;;;;;8.63;6.80;;;;;;;22.21;54.75;101307.56;5052812;28;20508;-43
2022/06/05 09:15:59;;;;;;;9.27;6.93;;;;;;;22.50;54.46;101308.06;5037528;28;20025;-44
2022/06/05 09:18:29;;;;;;;9.05;6.68;;;;;;;22.95;54.21;101309.38;5055661;28;20029;-44
2022/06/05 09:21:00;;;;;;;10.00;6.00;;;;;;;22.89;54.67;101297.97;5055865;28;20027;-44
2022/06/05 09:24:07;;;;;;;9.00;6.57;;;;;;;23.14;53.05;101312.34;5053605;28;20108;-51
2022/06/05 09:26:55;;;;;;;11.48;6.60;;;;;;;22.68;56.04;101322.66;5053573;28;20033;-43
2022/06/05 09:29:29;;;;;;;13.25;6.85;;;;;;;22.69;54.67;101309.19;5054712;28;20029;-43
2022/06/05 09:32:19;;;;;;;10.18;7.20;;;;;;;22.28;55.20;101316.84;5053604;28;20049;-43
2022/06/05 09:34:52;;;;;;;8.93;6.57;;;;;;;22.65;54.86;101315.25;5054514;28;20075;-43
2022/06/05 09:37:29;;;;;;;10.40;6.38;;;;;;;22.68;55.92;101309.47;5054776;28;20107;-43
2022/06/05 09:39:57;;;;;;;10.45;7.25;;;;;;;22.47;56.47;101313.81;5037091;28;20063;-44
2022/06/05 09:42:41;;;;;;;10.68;7.18;;;;;;;22.33;55.94;101324.00;5054442;28;20032;-44
2022/06/05 09:45:21;;;;;;;11.93;6.40;;;;;;;22.66;56.14;101309.72;5054691;28;20029;-43
2022/06/05 09:48:02;;;;;;;11.80;6.70;;;;;;;22.85;55.98;101317.22;5054452;28;20025;-44
2022/06/05 09:50:29;;;;;;;11.95;6.63;;;;;;;22.86;55.41;101302.97;5053780;28;20537;-44
2022/06/05 09:52:56;;;;;;;9.48;6.25;;;;;;;23.05;55.43;101308.63;5053555;28;20108;-43
2022/06/05 09:55:51;;;;;;;9.43;6.72;;;;;;;23.03;54.39;101308.09;5054257;28;20024;-44
2022/06/05 09:58:25;;;;;;;19.75;6.97;;;;;;;23.22;54.38;101303.13;5052802;28;20025;-44
2022/06/05 10:00:54;;;;;;;11.80;6.53;;;;;;;22.87;54.42;101308.00;5054344;28;20047;-44
2022/06/05 10:03:29;;;;;;;12.13;6.30;;;;;;;23.22;54.50;101300.50;5054107;28;20100;-44
2022/06/05 10:06:17;;;;;;;10.10;7.05;;;;;;;22.35;56.33;101311.34;5054487;28;20025;-44
2022/06/05 10:09:01;;;;;;;9.45;6.60;;;;;;;22.59;55.53;101300.47;5053871;28;20033;-44
2022/06/05 10:11:55;;;;;;;11.35;6.88;;;;;;;22.51;56.04;101286.72;5054228;28;20103;-45
2022/06/05 10:14:21;;;;;;;10.25;6.68;;;;;;;22.42;56.53;101296.16;5053817;28;20028;-42
2022/06/05 10:17:02;;;;;;;11.20;6.63;;;;;;;22.52;56.63;101298.81;5054301;28;20026;-44
2022/06/05 10:19:41;;;;;;;8.80;6.80;;;;;;;22.51;56.58;101296.47;5054424;28;20275;-44
2022/06/05 10:22:20;;;;;;;9.57;6.43;;;;;;;22.50;57.18;101293.03;5053325;28;20020;-42
2022/06/05 10:24:51;;;;;;;11.23;7.10;;;;;;;22.42;56.53;101295.34;5053435;28;20080;-44
2022/06/05 10:27:20;;;;;;;9.25;6.43;;;;;;;21.79;58.61;101287.19;5053000;28;20044;-45
2022/06/05 10:29:56;;;;;;;10.02;6.93;;;;;;;21.94;57.94;101286.53;5053609;28;20017;-44
2022/06/05 10:32:51;;;;;;;8.98;6.80;;;;;;;22.17;58.06;101288.84;5053765;28;20024;-44
2022/06/05 10:35:25;;;;;;;8.95;6.82;;;;;;;22.41;57.03;101276.13;5053727;28;20024;-45
2022/06/05 10:38:06;;;;;;;8.07;6.30;;;;;;;22.66;57.08;101282.59;5053698;28;20036;-44
2022/06/05 10:40:46;;;;;;;8.07;6.43;;;;;;;22.60;57.23;101275.72;5053666;28;20394;-44
2022/06/05 10:43:25;;;;;;;16.45;7.07;;;;;;;22.45;57.47;101273.78;5053729;28;20025;-44
2022/06/05 10:45:56;;;;;;;9.50;6.47;;;;;;;22.07;57.87;101276.38;5054439;28;20455;-43
2022/06/05 10:48:45;;;;;;;12.88;7.32;;;;;;;22.08;57.59;101275.34;5053393;28;20025;-44
2022/06/05 10:51:37;;;;;;;9.30;6.90;;;;;;;22.38;56.79;101267.94;5053424;28;20024;-44
2022/06/05 10:54:14;;;;;;;10.82;6.68;;;;;;;22.24;57.75;101273.66;5050235;28;20040;-44
2022/06/05 10:56:54;;;;;;;11.68;7.00;;;;;;;22.35;58.30;101258.69;5053413;28;20027;-44
2022/06/05 11:00:00;;;;;;;10.98;6.72;;;;;;;22.36;58.77;101251.63;5053418;28;20485;-44
2022/06/05 11:02:33;;;;;;;8.65;7.03;;;;;;;22.34;57.97;101254.50;5030620;28;20068;-44
2022/06/05 11:04:58;;;;;;;11.05;6.80;;;;;;;22.48;57.59;101241.66;5050555;28;20476;-44
2022/06/05 11:07:45;;;;;;;11.25;6.90;;;;;;;22.28;58.15;101250.25;5053479;28;20025;-44
2022/06/05 11:13:39;;;;;;;13.10;7.20;;;;;;;22.09;58.79;101253.22;5053759;28;20033;-42
2022/06/05 11:16:27;;;;;;;13.50;6.90;;;;;;;22.62;58.79;101242.00;5051267;28;20443;-43
2022/06/05 11:19:08;;;;;;;;;;;;;;;22.48;58.53;101245.09;5053206;28;20036;-44
2022/06/05 11:21:34;;;;;;;10.77;6.95;;;;;;;22.29;59.10;101249.19;5053379;28;20240;-44
2022/06/05 11:24:00;;;;;;;10.85;7.20;;;;;;;22.26;59.40;101247.06;5053178;28;20049;-45
2022/06/05 11:26:40;;;;;;;10.00;6.75;;;;;;;22.28;59.45;101243.13;5053006;28;20047;-45
2022/06/05 11:29:13;;;;;;;8.57;6.63;;;;;;;22.02;60.59;101250.03;5053017;28;20033;-44
2022/06/05 11:32:00;;;;;;;10.75;6.95;;;;;;;22.13;61.12;101237.75;5052124;28;20488;-45
2022/06/05 11:34:31;;;;;;;13.20;7.00;;;;;;;22.10;61.25;101240.88;5053222;28;20020;-44
2022/06/05 11:37:19;;;;;;;11.57;7.28;;;;;;;22.00;61.53;101240.78;5052953;28;20078;-45
2022/06/05 11:40:29;;;;;;;9.57;6.72;;;;;;;22.04;61.79;101236.63;5053187;28;20021;-45
2022/06/05 11:43:06;;;;;;;10.27;7.00;;;;;;;21.88;61.46;101230.44;5053105;28;20036;-44
2022/06/05 11:45:38;;;;;;;8.80;6.53;;;;;;;21.87;62.26;101228.88;5053382;28;20103;-44
2022/06/05 11:48:17;;;;;;;9.45;6.90;;;;;;;21.87;62.52;101228.88;5052894;28;20033;-44
2022/06/05 11:51:01;;;;;;;9.63;6.93;;;;;;;21.93;62.84;101219.97;5052908;28;20029;-42
2022/06/05 11:53:46;;;;;;;9.40;7.00;;;;;;;22.04;62.51;101215.56;5053358;28;20436;-43
2022/06/05 11:56:33;;;;;;;8.68;6.72;;;;;;;22.16;61.72;101215.38;5053074;28;20056;-45
2022/06/05 11:59:10;;;;;;;8.38;7.07;;;;;;;22.13;62.40;101218.53;5052578;28;20029;-44
2022/06/05 12:01:43;;;;;;;11.63;7.05;;;;;;;22.32;62.59;101213.66;5053034;28;20059;-45